createdAt,value
2017-09-15T00:00:02.725Z,85.4
2017-09-15T00:05:03.513Z,85.5
2017-09-15T00:10:02.740Z,85.8
2017-09-15T00:15:03.461Z,86.1
2017-09-15T00:20:03.262Z,86
2017-09-15T00:25:02.931Z,86.2
2017-09-15T00:30:02.635Z,86.3
2017-09-15T00:35:03.350Z,86.2
2017-09-15T00:40:02.480Z,86.3
2017-09-15T00:45:03.158Z,86.5
2017-09-15T00:50:02.869Z,86.1
2017-09-15T00:55:02.657Z,85.7
2017-09-15T01:00:03.391Z,85.6
2017-09-15T01:05:03.171Z,85.8
2017-09-15T01:10:02.459Z,85.9
2017-09-15T01:15:03.148Z,86
2017-09-15T01:20:02.928Z,86
2017-09-15T01:25:05.226Z,86.5
2017-09-15T01:30:02.952Z,86.4
2017-09-15T01:35:02.670Z,86.7
2017-09-15T01:40:02.822Z,86.8
2017-09-15T01:45:02.630Z,87.1
2017-09-15T01:50:03.333Z,87
2017-09-15T01:55:03.061Z,87.2
2017-09-15T02:00:02.765Z,87.3
2017-09-15T02:05:03.533Z,87.4
2017-09-15T02:10:02.704Z,87.7
2017-09-15T02:15:03.432Z,87.8
2017-09-15T02:20:03.220Z,87.9
2017-09-15T02:25:05.431Z,87.6
2017-09-15T02:30:03.349Z,87.6
2017-09-15T02:35:05.684Z,87.4
2017-09-15T02:40:02.857Z,87.4
2017-09-15T02:45:02.611Z,87.4
2017-09-15T02:50:03.315Z,87.5
2017-09-15T02:55:03.078Z,87.4
2017-09-15T03:00:02.773Z,87.6
2017-09-15T03:05:05.947Z,87.5
2017-09-15T03:10:03.159Z,87.4
2017-09-15T03:15:02.970Z,87.2
2017-09-15T03:20:02.798Z,86.8
2017-09-15T03:25:05.025Z,86.2
2017-09-15T03:30:02.723Z,86.2
2017-09-15T03:35:03.453Z,86.5
2017-09-15T03:40:02.644Z,86.5
2017-09-15T03:45:03.386Z,86.5
2017-09-15T03:50:03.153Z,86.5
2017-09-15T03:55:07.931Z,86.2
2017-09-15T04:00:02.689Z,86.2
2017-09-15T04:05:03.375Z,86.2
2017-09-15T04:10:02.476Z,86
2017-09-15T04:15:03.158Z,86
2017-09-15T04:20:02.921Z,85.9
2017-09-15T04:25:02.695Z,85.5
2017-09-15T04:30:03.426Z,85.4
2017-09-15T04:35:03.172Z,85.3
2017-09-15T04:40:03.464Z,85.2
2017-09-15T04:45:03.115Z,85.1
2017-09-15T04:50:02.896Z,85.2
2017-09-15T04:55:02.677Z,85.2
2017-09-15T05:00:03.407Z,85.3
2017-09-15T05:05:03.180Z,84.7
2017-09-15T05:10:03.437Z,84.5
2017-09-15T05:15:03.100Z,85.2
2017-09-15T05:20:02.918Z,84.9
2017-09-15T05:25:02.709Z,85
2017-09-15T05:30:03.482Z,85.2
2017-09-15T05:35:03.220Z,85.3
2017-09-15T05:40:03.476Z,84.9
2017-09-15T05:45:03.125Z,85.2
2017-09-15T05:50:02.877Z,85.2
2017-09-15T05:55:02.636Z,84.8
2017-09-15T06:00:03.379Z,84.9
2017-09-15T06:05:03.130Z,85.1
2017-09-15T06:10:05.945Z,84.8
2017-09-15T06:15:02.641Z,84.7
2017-09-15T06:20:03.412Z,84.8
2017-09-15T06:25:03.108Z,84.7
2017-09-15T06:30:02.922Z,83.7
2017-09-15T06:35:02.621Z,84
2017-09-15T06:40:02.830Z,83.9
2017-09-15T06:45:02.579Z,83.3
2017-09-15T06:50:03.297Z,82.9
2017-09-15T06:55:03.059Z,83.6
2017-09-15T07:00:02.787Z,83
2017-09-15T07:05:03.461Z,83.2
2017-09-15T07:10:02.698Z,82.1
2017-09-15T07:15:03.418Z,82
2017-09-15T07:20:03.224Z,81.7
2017-09-15T07:25:03.005Z,81.6
2017-09-15T07:30:05.250Z,80.1
2017-09-15T07:35:02.944Z,80.1
2017-09-15T07:40:03.183Z,80.3
2017-09-15T07:45:02.923Z,79.9
2017-09-15T07:50:02.626Z,78.9
2017-09-15T07:55:03.401Z,78.6
2017-09-15T08:00:03.101Z,79
2017-09-15T08:05:02.861Z,77.7
2017-09-15T08:10:03.096Z,77.4
2017-09-15T08:15:05.371Z,77.2
2017-09-15T08:20:03.143Z,77.1
2017-09-15T08:25:05.407Z,75.3
2017-09-15T08:30:08.198Z,74.7
2017-09-15T08:35:15.538Z,74.6
2017-09-15T08:40:05.195Z,74.5
2017-09-15T08:45:05.446Z,75
2017-09-15T08:50:03.121Z,74.9
2017-09-15T08:55:05.424Z,73
2017-09-15T09:00:15.792Z,72.2
2017-09-15T09:05:02.492Z,72.1
2017-09-15T09:10:07.680Z,71.8
2017-09-15T09:15:03.379Z,71.8
2017-09-15T09:20:15.795Z,70.3
2017-09-15T09:25:12.668Z,69.8
2017-09-15T09:30:05.909Z,68.9
2017-09-15T09:35:02.627Z,68.9
2017-09-15T09:40:05.355Z,67.3
2017-09-15T09:45:08.099Z,67.5
2017-09-15T09:50:25.596Z,66.6
2017-09-15T09:55:18.475Z,66.1
2017-09-15T10:00:05.737Z,67.3
2017-09-15T10:05:03.516Z,67.3
2017-09-15T10:10:02.694Z,68
2017-09-15T10:15:03.407Z,68
2017-09-15T10:20:08.266Z,67.6
2017-09-15T10:25:05.484Z,67.7
2017-09-15T10:30:03.193Z,67.7
2017-09-15T10:35:05.423Z,66
2017-09-15T10:40:05.103Z,63.9
2017-09-15T10:45:02.807Z,63.9
2017-09-15T10:50:06.062Z,65.4
2017-09-15T10:55:15.411Z,63.3
2017-09-15T11:00:05.594Z,64.5
2017-09-15T11:05:08.375Z,63.8
2017-09-15T11:10:05.007Z,63.9
2017-09-15T11:15:05.388Z,64.4
2017-09-15T11:20:03.157Z,64.4
2017-09-15T11:25:02.919Z,63.6
2017-09-15T11:30:02.637Z,63.1
2017-09-15T11:35:10.902Z,64
2017-09-15T11:40:10.616Z,64.2
2017-09-15T11:45:05.189Z,63.7
2017-09-15T11:50:23.109Z,62.6
2017-09-15T11:55:02.834Z,62.7
2017-09-15T12:00:02.585Z,61.3
2017-09-15T12:05:05.802Z,58.8
2017-09-15T12:10:05.499Z,57.3
2017-09-15T12:15:05.739Z,58.8
2017-09-15T12:20:17.748Z,58.7
2017-09-15T12:25:03.448Z,58.6
2017-09-15T12:30:05.668Z,59.3
2017-09-15T12:35:03.376Z,59.3
2017-09-15T12:40:02.539Z,59.6
2017-09-15T12:45:03.273Z,58.8
2017-09-15T12:50:08.029Z,58.5
2017-09-15T12:55:02.752Z,58.5
2017-09-15T13:00:03.475Z,56.3
2017-09-15T13:05:18.347Z,54.9
2017-09-15T13:10:02.712Z,54.9
2017-09-15T13:15:03.426Z,53.8
2017-09-15T13:20:10.809Z,51.9
2017-09-15T13:25:05.045Z,51.7
2017-09-15T13:30:07.808Z,52.7
2017-09-15T13:35:02.513Z,52.7
2017-09-15T13:40:12.808Z,53.9
2017-09-15T13:45:02.516Z,53.9
2017-09-15T13:50:08.283Z,56.2
2017-09-15T13:55:02.967Z,56.2
2017-09-15T14:00:07.731Z,55.8
2017-09-15T14:05:08.503Z,58.5
2017-09-15T14:10:02.744Z,58.5
2017-09-15T14:15:21.122Z,64
2017-09-15T14:20:02.902Z,64
2017-09-15T14:25:02.642Z,65
2017-09-15T14:30:08.413Z,68.2
2017-09-15T14:35:05.653Z,67
2017-09-15T14:40:05.383Z,68
2017-09-15T14:45:03.112Z,68
2017-09-15T14:50:05.357Z,66.2
2017-09-15T14:55:05.619Z,64.5
2017-09-15T15:00:03.310Z,64.5
2017-09-15T15:05:05.560Z,65.4
2017-09-15T15:10:07.807Z,63.3
2017-09-15T15:15:05.004Z,64.1
2017-09-15T15:20:05.346Z,64.9
2017-09-15T15:25:03.051Z,64.9
2017-09-15T15:30:05.297Z,66.3
2017-09-15T15:35:02.989Z,66.3
2017-09-15T15:40:03.154Z,66.1
2017-09-15T15:45:10.625Z,67.1
2017-09-15T15:50:08.408Z,68
2017-09-15T15:55:03.147Z,68
2017-09-15T16:00:02.868Z,67.8
2017-09-15T16:05:07.650Z,70.1
2017-09-15T16:10:10.414Z,69.8
2017-09-15T16:15:05.648Z,70.9
2017-09-15T16:20:03.456Z,70.8
2017-09-15T16:25:03.182Z,72
2017-09-15T16:30:05.594Z,73.4
2017-09-15T16:35:03.289Z,73.4
2017-09-15T16:40:08.514Z,74.1
2017-09-15T16:45:03.243Z,74
2017-09-15T16:50:02.969Z,74.2
2017-09-15T16:55:05.186Z,74.8
2017-09-15T17:00:02.896Z,74.7
2017-09-15T17:05:20.354Z,75.4
2017-09-15T17:10:03.488Z,75.3
2017-09-15T17:15:18.378Z,76
2017-09-15T17:20:08.190Z,76.1
2017-09-15T17:25:02.961Z,76.1
2017-09-15T17:30:02.652Z,76.3
2017-09-15T17:35:03.392Z,76.5
2017-09-15T17:40:02.503Z,76.7
2017-09-15T17:45:05.737Z,77.2
2017-09-15T17:50:03.456Z,77.2
2017-09-15T17:55:05.764Z,77.8
2017-09-15T18:00:02.573Z,77.7
2017-09-15T18:05:10.857Z,78.3
2017-09-15T18:10:10.635Z,78.6
2017-09-15T18:15:10.915Z,78.6
2017-09-15T18:20:05.188Z,78.2
2017-09-15T18:25:02.911Z,78.2
2017-09-15T18:30:02.612Z,78
2017-09-15T18:35:08.395Z,77.7
2017-09-15T18:40:02.479Z,77.7
2017-09-15T18:45:05.763Z,76.6
2017-09-15T18:50:02.895Z,76.6
2017-09-15T18:55:10.222Z,76.2
2017-09-15T19:00:02.931Z,76.1
2017-09-15T19:05:05.161Z,76.2
2017-09-15T19:10:03.411Z,76.2
2017-09-15T19:15:03.122Z,76.5
2017-09-15T19:20:07.996Z,76.4
2017-09-15T19:25:02.671Z,76.5
2017-09-15T19:30:05.913Z,76.8
2017-09-15T19:35:02.593Z,76.8
2017-09-15T19:40:07.851Z,76.9
2017-09-15T19:45:05.089Z,76.9
2017-09-15T19:50:02.810Z,76.9
2017-09-15T19:55:02.481Z,76.9
2017-09-15T20:00:08.252Z,77.1
2017-09-15T20:05:02.911Z,77.1
2017-09-15T20:10:03.090Z,77.4
2017-09-15T20:15:05.355Z,77.5
2017-09-15T20:20:05.712Z,77.6
2017-09-15T20:25:05.887Z,77.9
2017-09-15T20:30:05.085Z,78.2
2017-09-15T20:35:02.793Z,78.1
2017-09-15T20:40:05.487Z,78.5
2017-09-15T20:45:05.752Z,78.8
2017-09-15T20:50:03.453Z,78.7
2017-09-15T20:55:03.183Z,79.1
2017-09-15T21:00:02.893Z,79.2
2017-09-15T21:05:05.203Z,79.1
2017-09-15T21:10:05.942Z,78.9
2017-09-15T21:15:02.615Z,78.9
2017-09-15T21:20:03.391Z,78.4
2017-09-15T21:25:05.654Z,77.9
2017-09-15T21:30:03.357Z,77.8
2017-09-15T21:35:38.471Z,77.6
2017-09-15T21:40:05.098Z,77.3
2017-09-15T21:45:02.821Z,77.3
2017-09-15T21:50:05.056Z,77.1
2017-09-15T21:55:02.842Z,77.1
2017-09-15T22:00:02.537Z,76.8
2017-09-15T22:05:03.287Z,77.2
2017-09-15T22:10:03.456Z,76.9
2017-09-15T22:15:03.127Z,77.2
2017-09-15T22:20:02.947Z,77.6
2017-09-15T22:25:05.265Z,77.3
2017-09-15T22:30:05.509Z,77.2
2017-09-15T22:35:13.378Z,77.6
2017-09-15T22:40:02.552Z,77.6
2017-09-15T22:45:03.280Z,78.2
2017-09-15T22:50:08.033Z,78.5
2017-09-15T22:55:05.247Z,78.6
2017-09-15T23:00:02.970Z,78.5
2017-09-15T23:05:05.228Z,78.7
2017-09-15T23:10:03.365Z,78.7
2017-09-15T23:15:03.271Z,79.2
2017-09-15T23:20:03.030Z,79.3
2017-09-15T23:25:05.281Z,80.9
2017-09-15T23:30:02.990Z,80.9
2017-09-15T23:35:07.775Z,81
2017-09-15T23:40:02.920Z,81
2017-09-15T23:45:02.654Z,81.1
2017-09-15T23:50:08.451Z,81.3
2017-09-15T23:55:03.129Z,81.3
